Terminal Aerodrome Forecast
Issued by NWS

Home | Current Version | Previous Version | Text Only | Print | Product List | Glossary On
Versions: 1 2 3 4 5 6 7 8 9 10 11 12 13 14 15 16 17 18 19 20 21 22 23 24 25 26 27 28 29 30 31 32 33 34 35
000
FTUS45 KGJT 100536
TAFTEX
TAF
KTEX 100536Z 1006/1106 12005KT P6SM SCT090 BKN150
     FM101800 26006KT P6SM VCTS SCT060CB BKN180
      TEMPO 1018/1022 VRB15G30KT -TSRA BKN060CB
     FM110200 12005KT P6SM VCSH SCT060 OVC100=

USA.gov is the U.S. government's official web portal to all federal, state and local government web resources and services.